createdAt,value
2018-12-29T00:00:06.389Z,98793.30
2018-12-29T00:02:34.564Z,98793.52
2018-12-29T00:05:02.760Z,98798.14
2018-12-29T00:07:30.953Z,98799.17
2018-12-29T00:09:59.181Z,98804.05
2018-12-29T00:12:27.326Z,98807.23
2018-12-29T00:14:55.516Z,98808.30
2018-12-29T00:17:23.730Z,98813.73
2018-12-29T00:19:51.885Z,98816.44
2018-12-29T00:22:20.197Z,98812.36
2018-12-29T00:24:48.521Z,98821.20
2018-12-29T00:27:16.713Z,98825.25
2018-12-29T00:29:44.910Z,98827.46
2018-12-29T00:32:13.078Z,98827.72
2018-12-29T00:34:41.276Z,98832.25
2018-12-29T00:37:09.421Z,98833.90
2018-12-29T00:39:37.594Z,98828.81
2018-12-29T00:42:05.869Z,98827.72
2018-12-29T00:44:34.069Z,98832.78
2018-12-29T00:47:02.221Z,98833.63
2018-12-29T00:49:30.423Z,98829.56
2018-12-29T00:51:58.614Z,98834.69
2018-12-29T00:54:26.852Z,98838.72
2018-12-29T00:56:54.995Z,98844.34
2018-12-29T00:59:23.208Z,98844.63
2018-12-29T01:01:51.404Z,98845.98
2018-12-29T01:04:19.590Z,98851.91
2018-12-29T01:06:47.801Z,98856.70
2018-12-29T01:09:16.018Z,98853.81
2018-12-29T01:11:44.184Z,98860.50
2018-12-29T01:14:12.394Z,98869.38
2018-12-29T01:16:40.621Z,98870.44
2018-12-29T01:19:08.837Z,98883.06
2018-12-29T01:21:37.058Z,98873.94
2018-12-29T01:24:05.234Z,98878.50
2018-12-29T01:26:33.419Z,98879.83
2018-12-29T01:29:01.602Z,98882.80
2018-12-29T01:31:29.753Z,98880.66
2018-12-29T01:33:57.961Z,98881.21
2018-12-29T01:36:26.134Z,98877.19
2018-12-29T01:38:54.353Z,98875.84
2018-12-29T01:41:22.529Z,98877.17
2018-12-29T01:43:50.714Z,98866.42
2018-12-29T01:46:18.931Z,98870.99
2018-12-29T01:48:47.178Z,98878.77
2018-12-29T01:51:15.513Z,98886.30
2018-12-29T01:53:47.238Z,98878.52
2018-12-29T01:56:15.381Z,98871.52
2018-12-29T01:58:43.550Z,98885.48
2018-12-29T02:01:11.782Z,98883.61
2018-12-29T02:03:39.963Z,98873.45
2018-12-29T02:06:08.154Z,98879.05
2018-12-29T02:08:36.430Z,98885.24
2018-12-29T02:11:04.586Z,98880.13
2018-12-29T02:13:32.740Z,98885.78
2018-12-29T02:16:00.968Z,98899.23
2018-12-29T02:18:29.178Z,98909.42
2018-12-29T02:20:57.381Z,98906.98
2018-12-29T02:23:25.602Z,98909.91
2018-12-29T02:25:54.279Z,98906.44
2018-12-29T02:28:22.527Z,98905.65
2018-12-29T02:30:50.702Z,98898.69
2018-12-29T02:33:18.879Z,98898.69
2018-12-29T02:35:47.082Z,98895.19
2018-12-29T02:38:15.272Z,98909.15
2018-12-29T02:40:43.477Z,98907.80
2018-12-29T02:43:11.638Z,98896.00
2018-12-29T02:45:39.893Z,98895.98
2018-12-29T02:48:08.077Z,98896.00
2018-12-29T02:50:36.309Z,98889.53
2018-12-29T02:53:04.635Z,98891.69
2018-12-29T02:55:32.856Z,98891.92
2018-12-29T02:58:00.989Z,98884.98
2018-12-29T03:00:29.218Z,98884.92
2018-12-29T03:02:57.377Z,98873.45
2018-12-29T03:05:25.543Z,98880.41
2018-12-29T03:07:53.770Z,98893.28
2018-12-29T03:10:22.063Z,98882.01
2018-12-29T03:12:50.235Z,98880.95
2018-12-29T03:15:18.461Z,98873.14
2018-12-29T03:17:46.646Z,98862.14
2018-12-29T03:20:14.855Z,98858.09
2018-12-29T03:22:43.058Z,98862.42
2018-12-29T03:25:11.249Z,98870.22
2018-12-29T03:27:39.460Z,98859.45
2018-12-29T03:30:07.926Z,98872.37
2018-12-29T03:32:36.188Z,98874.25
2018-12-29T03:35:06.501Z,98871.59
2018-12-29T03:37:34.736Z,98882.57
2018-12-29T03:40:02.897Z,98871.31
2018-12-29T03:42:31.070Z,98859.46
2018-12-29T03:44:59.292Z,98853.55
2018-12-29T03:47:27.555Z,98841.19
2018-12-29T03:49:55.738Z,98847.59
2018-12-29T03:52:24.023Z,98842.81
2018-12-29T03:54:52.247Z,98852.21
2018-12-29T03:57:20.409Z,98845.75
2018-12-29T03:59:48.619Z,98853.02
2018-12-29T04:02:16.842Z,98838.76
2018-12-29T04:04:45.137Z,98847.09
2018-12-29T04:07:13.268Z,98828.27
2018-12-29T04:09:41.459Z,98829.33
2018-12-29T04:12:11.417Z,98843.32
2018-12-29T04:14:39.578Z,98845.75
2018-12-29T04:17:07.792Z,98844.41
2018-12-29T04:19:35.965Z,98841.70
2018-12-29T04:22:04.170Z,98833.95
2018-12-29T04:24:32.334Z,98841.72
2018-12-29T04:27:00.509Z,98850.03
2018-12-29T04:29:28.786Z,98857.56
2018-12-29T04:31:56.942Z,98859.16
2018-12-29T04:34:25.109Z,98872.89
2018-12-29T04:36:53.276Z,98877.14
2018-12-29T04:39:21.438Z,98875.85
2018-12-29T04:41:49.614Z,98886.30
2018-12-29T04:44:17.781Z,98884.41
2018-12-29T04:46:45.925Z,98893.82
2018-12-29T04:49:14.094Z,98903.20
2018-12-29T04:51:42.345Z,98907.23
2018-12-29T04:54:10.514Z,98898.92
2018-12-29T04:56:38.746Z,98888.42
2018-12-29T04:59:06.913Z,98878.52
2018-12-29T05:01:35.084Z,98885.77
2018-12-29T05:04:03.331Z,98875.02
2018-12-29T05:06:31.487Z,98879.30
2018-12-29T05:08:59.645Z,98877.96
2018-12-29T05:11:27.915Z,98880.11
2018-12-29T05:13:56.092Z,98880.16
2018-12-29T05:16:24.279Z,98887.64
2018-12-29T05:18:52.454Z,98879.86
2018-12-29T05:21:20.662Z,98885.83
2018-12-29T05:23:48.872Z,98882.05
2018-12-29T05:26:17.053Z,98885.78
2018-12-29T05:28:45.268Z,98885.49
2018-12-29T05:31:13.454Z,98884.15
2018-12-29T05:33:41.711Z,98885.22
2018-12-29T05:36:09.948Z,98886.31
2018-12-29T05:38:38.159Z,98904.00
2018-12-29T05:41:06.409Z,98920.14
2018-12-29T05:43:34.606Z,98911.78
2018-12-29T05:46:02.808Z,98915.05
2018-12-29T05:48:31.003Z,98913.69
2018-12-29T05:50:59.154Z,98911.56
2018-12-29T05:53:27.360Z,98908.59
2018-12-29T05:55:55.607Z,98893.02
2018-12-29T05:58:23.870Z,98892.73
2018-12-29T06:00:52.050Z,98901.86
2018-12-29T06:03:20.237Z,98886.57
2018-12-29T06:05:48.419Z,98885.75
2018-12-29T06:08:16.608Z,98886.55
2018-12-29T06:10:44.847Z,98886.56
2018-12-29T06:13:13.023Z,98887.39
2018-12-29T06:15:41.222Z,98886.83
2018-12-29T06:18:09.398Z,98888.72
2018-12-29T06:20:37.600Z,98888.45
2018-12-29T06:23:05.750Z,98891.13
2018-12-29T06:25:33.937Z,98891.41
2018-12-29T06:28:02.121Z,98883.36
2018-12-29T06:30:30.260Z,98885.73
2018-12-29T06:32:58.442Z,98877.42
2018-12-29T06:35:26.603Z,98879.30
2018-12-29T06:37:54.770Z,98878.22
2018-12-29T06:40:22.941Z,98880.13
2018-12-29T06:42:51.098Z,98895.42
2018-12-29T06:45:19.273Z,98900.02
2018-12-29T06:47:47.447Z,98908.03
2018-12-29T06:50:15.625Z,98912.05
2018-12-29T06:52:43.899Z,98913.45
2018-12-29T06:55:12.079Z,98910.44
2018-12-29T06:57:40.267Z,98905.91
2018-12-29T07:00:08.426Z,98913.73
2018-12-29T07:02:36.647Z,98916.38
2018-12-29T07:05:04.841Z,98922.30
2018-12-29T07:07:33.064Z,98923.91
2018-12-29T07:10:01.310Z,98920.95
2018-12-29T07:12:29.519Z,98929.25
2018-12-29T07:14:57.783Z,98926.59
2018-12-29T07:17:25.892Z,98931.72
2018-12-29T07:19:54.099Z,98929.05
2018-12-29T07:22:22.341Z,98934.37
2018-12-29T07:24:50.525Z,98930.92
2018-12-29T07:27:18.720Z,98934.45
2018-12-29T07:29:46.997Z,98937.67
2018-12-29T07:32:15.177Z,98939.83
2018-12-29T07:34:43.411Z,98939.67
2018-12-29T07:37:11.625Z,98941.02
2018-12-29T07:39:39.781Z,98937.52
2018-12-29T07:42:07.946Z,98951.72
2018-12-29T07:44:36.117Z,98949.26
2018-12-29T07:47:04.420Z,98955.51
2018-12-29T07:49:32.547Z,98958.80
2018-12-29T07:52:00.760Z,98958.28
2018-12-29T07:54:28.901Z,98957.27
2018-12-29T07:56:57.077Z,98954.03
2018-12-29T07:59:25.286Z,98955.63
2018-12-29T08:01:53.438Z,98966.70
2018-12-29T08:04:21.598Z,98961.05
2018-12-29T08:06:49.838Z,98966.42
2018-12-29T08:09:18.009Z,98966.95
2018-12-29T08:11:46.139Z,98962.58
2018-12-29T08:14:14.262Z,98960.17
2018-12-29T08:16:42.399Z,98961.53
2018-12-29T08:19:10.531Z,98970.44
2018-12-29T08:21:38.686Z,98977.97
2018-12-29T08:24:06.814Z,98973.41
2018-12-29T08:26:34.924Z,98973.44
2018-12-29T08:29:03.058Z,98970.98
2018-12-29T08:31:31.271Z,98968.59
2018-12-29T08:33:59.413Z,98975.55
2018-12-29T08:36:27.541Z,98977.42
2018-12-29T08:38:55.662Z,98979.84
2018-12-29T08:41:23.793Z,98986.02
2018-12-29T08:43:51.897Z,98983.59
2018-12-29T08:46:20.106Z,98983.36
2018-12-29T08:48:48.217Z,98980.13
2018-12-29T08:51:16.428Z,98978.27
2018-12-29T08:53:44.562Z,98983.34
2018-12-29T08:56:12.695Z,98987.64
2018-12-29T08:58:40.860Z,98984.16
2018-12-29T09:01:08.971Z,98980.66
2018-12-29T09:03:37.190Z,98978.54
2018-12-29T09:06:05.373Z,98983.36
2018-12-29T09:08:33.483Z,98988.19
2018-12-29T09:11:01.625Z,98988.19
2018-12-29T09:13:29.754Z,98983.61
2018-12-29T09:15:57.886Z,98978.75
2018-12-29T09:18:25.998Z,98970.17
2018-12-29T09:20:54.116Z,98975.46
2018-12-29T09:23:22.266Z,98985.88
2018-12-29T09:25:50.387Z,98978.92
2018-12-29T09:28:18.511Z,98972.48
2018-12-29T09:30:46.690Z,98970.38
2018-12-29T09:33:14.837Z,98972.78
2018-12-29T09:35:42.985Z,98980.33
2018-12-29T09:38:11.114Z,98986.20
2018-12-29T09:40:39.294Z,98995.08
2018-12-29T09:43:07.447Z,99005.84
2018-12-29T09:45:35.565Z,99004.45
2018-12-29T09:48:03.715Z,99003.94
2018-12-29T09:50:31.854Z,99009.55
2018-12-29T09:52:59.989Z,99007.16
2018-12-29T09:55:28.167Z,98999.09
2018-12-29T09:57:56.286Z,99006.09
2018-12-29T10:00:24.503Z,99011.20
2018-12-29T10:02:53.517Z,99008.14
2018-12-29T10:05:21.655Z,99006.09
2018-12-29T10:07:49.773Z,99004.48
2018-12-29T10:10:17.922Z,99009.33
2018-12-29T10:12:46.028Z,99010.44
2018-12-29T10:15:14.166Z,99015.02
2018-12-29T10:17:42.285Z,99009.87
2018-12-29T10:20:10.473Z,99007.45
2018-12-29T10:22:38.681Z,99003.42
2018-12-29T10:25:06.810Z,99004.50
2018-12-29T10:27:34.929Z,99002.89
2018-12-29T10:30:03.161Z,98997.54
2018-12-29T10:32:31.296Z,98992.94
2018-12-29T10:34:59.417Z,98994.56
2018-12-29T10:37:27.535Z,98997.24
2018-12-29T10:39:55.669Z,98996.95
2018-12-29T10:42:23.850Z,99000.98
2018-12-29T10:44:52.014Z,98994.03
2018-12-29T10:47:20.138Z,98995.92
2018-12-29T10:49:48.253Z,98988.64
2018-12-29T10:52:16.426Z,98991.59
2018-12-29T10:54:44.648Z,98987.86
2018-12-29T10:57:12.802Z,98996.72
2018-12-29T10:59:40.986Z,98990.78
2018-12-29T11:02:09.126Z,98987.31
2018-12-29T11:04:37.260Z,98988.66
2018-12-29T11:07:05.379Z,98982.52
2018-12-29T11:09:33.542Z,98983.00
2018-12-29T11:12:01.680Z,98985.16
2018-12-29T11:14:29.873Z,98978.42
2018-12-29T11:16:58.022Z,98969.87
2018-12-29T11:19:26.206Z,98976.05
2018-12-29T11:21:54.359Z,98967.73
2018-12-29T11:24:22.535Z,98963.13
2018-12-29T11:26:50.690Z,98963.65
2018-12-29T11:29:18.853Z,98966.91
2018-12-29T11:31:47.035Z,98967.68
2018-12-29T11:34:15.206Z,98962.86
2018-12-29T11:36:43.363Z,98959.94
2018-12-29T11:39:11.551Z,98963.95
2018-12-29T11:41:39.750Z,98955.89
2018-12-29T11:44:07.898Z,98956.14
2018-12-29T11:46:36.035Z,98953.77
2018-12-29T11:49:04.150Z,98958.05
2018-12-29T11:51:32.282Z,98956.20
2018-12-29T11:54:00.446Z,98954.02
2018-12-29T11:56:28.561Z,98954.82
2018-12-29T11:58:56.677Z,98959.16
2018-12-29T12:01:24.929Z,98956.44
2018-12-29T12:03:53.033Z,98953.50
2018-12-29T12:06:21.186Z,98948.67
2018-12-29T12:08:49.294Z,98946.25
2018-12-29T12:11:17.439Z,98941.16
2018-12-29T12:13:45.665Z,98942.81
2018-12-29T12:16:13.859Z,98948.42
2018-12-29T12:18:42.019Z,98942.20
2018-12-29T12:21:10.138Z,98935.27
2018-12-29T12:23:38.313Z,98932.02
2018-12-29T12:26:06.657Z,98928.84
2018-12-29T12:28:34.784Z,98927.97
2018-12-29T12:31:02.925Z,98930.95
2018-12-29T12:33:31.059Z,98919.13
2018-12-29T12:35:59.186Z,98921.58
2018-12-29T12:38:27.382Z,98911.03
2018-12-29T12:40:55.492Z,98914.06
2018-12-29T12:43:23.929Z,98926.48
2018-12-29T12:45:52.354Z,98918.70
2018-12-29T12:48:20.479Z,98921.95
2018-12-29T12:50:48.809Z,98917.64
2018-12-29T12:53:16.978Z,98916.27
2018-12-29T12:55:45.413Z,98915.18
2018-12-29T12:58:13.847Z,98920.02
2018-12-29T13:00:42.169Z,98925.94
2018-12-29T13:03:10.594Z,98921.14
2018-12-29T13:05:38.761Z,98918.70
2018-12-29T13:08:06.903Z,98912.80
2018-12-29T13:10:35.022Z,98912.30
2018-12-29T13:13:03.176Z,98914.15
2018-12-29T13:15:31.301Z,98914.67
2018-12-29T13:17:59.410Z,98901.75
2018-12-29T13:20:27.827Z,98897.52
2018-12-29T13:22:56.504Z,98901.47
2018-12-29T13:25:26.052Z,98902.05
2018-12-29T13:27:54.927Z,98907.12
2018-12-29T13:30:23.184Z,98908.75
2018-12-29T13:32:52.573Z,98910.85
2018-12-29T13:35:20.719Z,98907.66
2018-12-29T13:37:49.379Z,98902.23
2018-12-29T13:40:17.494Z,98901.20
2018-12-29T13:42:46.097Z,98902.99
2018-12-29T13:45:14.498Z,98900.66
2018-12-29T13:47:43.242Z,98901.64
2018-12-29T13:50:11.350Z,98896.67
2018-12-29T13:52:40.230Z,98901.83
2018-12-29T13:55:08.475Z,98905.86
2018-12-29T13:57:38.887Z,98899.17
2018-12-29T14:00:07.133Z,98894.34
2018-12-29T14:02:35.971Z,98893.02
2018-12-29T14:05:04.178Z,98889.26
2018-12-29T14:07:32.747Z,98882.29
2018-12-29T14:10:00.866Z,98882.56
2018-12-29T14:12:29.150Z,98877.67
2018-12-29T14:14:57.374Z,98886.55
2018-12-29T14:17:25.488Z,98880.46
2018-12-29T14:19:53.648Z,98872.10
2018-12-29T14:22:21.770Z,98876.44
2018-12-29T14:24:50.006Z,98867.77
2018-12-29T14:27:18.131Z,98870.20
2018-12-29T14:29:46.254Z,98868.38
2018-12-29T14:32:14.394Z,98864.60
2018-12-29T14:34:42.518Z,98867.84
2018-12-29T14:37:10.796Z,98862.16
2018-12-29T14:39:39.023Z,98864.91
2018-12-29T14:42:07.139Z,98860.57
2018-12-29T14:44:35.286Z,98866.75
2018-12-29T14:47:03.705Z,98870.22
2018-12-29T14:49:31.918Z,98873.73
2018-12-29T14:52:00.057Z,98879.09
2018-12-29T14:54:28.398Z,98871.31
2018-12-29T14:56:56.570Z,98873.47
2018-12-29T14:59:25.139Z,98867.01
2018-12-29T15:01:53.318Z,98861.34
2018-12-29T15:04:21.473Z,98856.84
2018-12-29T15:06:49.650Z,98854.16
2018-12-29T15:09:17.789Z,98858.99
2018-12-29T15:11:46.275Z,98863.00
2018-12-29T15:14:14.495Z,98858.74
2018-12-29T15:16:43.076Z,98857.08
2018-12-29T15:19:11.270Z,98856.80
2018-12-29T15:21:39.413Z,98854.94
2018-12-29T15:24:08.993Z,98850.92
2018-12-29T15:26:37.294Z,98848.23
2018-12-29T15:29:06.023Z,98846.89
2018-12-29T15:31:34.197Z,98846.89
2018-12-29T15:34:02.393Z,98840.73
2018-12-29T15:36:30.926Z,98831.34
2018-12-29T15:38:59.130Z,98829.97
2018-12-29T15:41:27.309Z,98844.22
2018-12-29T15:43:55.590Z,98848.50
2018-12-29T15:46:23.786Z,98853.59
2018-12-29T15:48:52.000Z,98853.34
2018-12-29T15:51:20.598Z,98862.98
2018-12-29T15:53:48.830Z,98851.42
2018-12-29T15:56:17.346Z,98846.89
2018-12-29T15:58:45.566Z,98845.55
2018-12-29T16:01:14.034Z,98850.63
2018-12-29T16:03:42.226Z,98842.84
2018-12-29T16:06:10.388Z,98839.38
2018-12-29T16:08:38.586Z,98827.56
2018-12-29T16:11:06.778Z,98823.55
2018-12-29T16:13:35.269Z,98823.53
2018-12-29T16:16:03.447Z,98818.19
2018-12-29T16:18:31.637Z,98650.76
2018-12-29T16:20:59.901Z,98801.26
2018-12-29T16:23:28.063Z,98795.89
2018-12-29T16:25:56.265Z,98779.52
2018-12-29T16:28:24.441Z,98780.31
2018-12-29T16:30:52.594Z,98778.44
2018-12-29T16:33:20.833Z,98792.11
2018-12-29T16:35:49.018Z,98786.19
2018-12-29T16:38:17.181Z,98781.07
2018-12-29T16:40:45.377Z,98774.66
2018-12-29T16:43:13.683Z,98774.64
2018-12-29T16:45:41.958Z,98757.20
2018-12-29T16:48:10.416Z,98762.58
2018-12-29T16:50:38.544Z,98762.86
2018-12-29T16:53:06.778Z,98768.51
2018-12-29T16:55:34.956Z,98776.03
2018-12-29T16:58:03.363Z,98773.57
2018-12-29T17:00:31.530Z,98769.48
2018-12-29T17:02:59.723Z,98776.78
2018-12-29T17:05:27.926Z,98779.22
2018-12-29T17:07:56.377Z,98773.27
2018-12-29T17:10:24.603Z,98687.55
2018-12-29T17:12:52.864Z,98783.19
2018-12-29T17:15:21.122Z,98786.49
2018-12-29T17:17:49.278Z,98788.92
2018-12-29T17:20:17.490Z,98722.08
2018-12-29T17:22:45.612Z,98782.99
2018-12-29T17:25:13.746Z,98786.75
2018-12-29T17:27:41.853Z,98785.91
2018-12-29T17:30:10.082Z,98792.62
2018-12-29T17:32:38.737Z,98782.44
2018-12-29T17:35:06.960Z,98771.70
2018-12-29T17:37:35.078Z,98763.61
2018-12-29T17:40:03.407Z,98762.80
2018-12-29T17:42:31.945Z,98768.70
2018-12-29T17:45:00.093Z,98776.45
2018-12-29T17:47:28.396Z,98779.14
2018-12-29T17:49:56.566Z,98772.67
2018-12-29T17:52:24.677Z,98764.39
2018-12-29T17:54:53.233Z,98768.17
2018-12-29T17:57:21.358Z,98764.62
2018-12-29T17:59:49.468Z,98749.84
2018-12-29T18:02:17.623Z,98745.31
2018-12-29T18:04:45.741Z,98736.16
2018-12-29T18:07:13.894Z,98729.70
2018-12-29T18:09:42.005Z,98737.82
2018-12-29T18:12:10.130Z,98731.38
2018-12-29T18:14:38.249Z,98736.25
2018-12-29T18:17:06.378Z,98735.66
2018-12-29T18:19:34.518Z,98732.48
2018-12-29T18:22:03.043Z,98726.80
2018-12-29T18:24:31.196Z,98706.66
2018-12-29T18:26:59.315Z,98707.50
2018-12-29T18:29:27.433Z,98693.54
2018-12-29T18:31:55.958Z,98700.22
2018-12-29T18:34:24.113Z,98704.50
2018-12-29T18:36:52.462Z,98708.31
2018-12-29T18:39:20.587Z,98701.28
2018-12-29T18:41:48.726Z,98698.41
2018-12-29T18:44:16.845Z,98695.97
2018-12-29T18:46:45.202Z,98690.54
2018-12-29T18:49:13.339Z,98685.23
2018-12-29T18:51:41.453Z,98672.59
2018-12-29T18:54:09.602Z,98654.88
2018-12-29T18:56:45.342Z,98649.80
2018-12-29T18:59:07.662Z,98647.14
2018-12-29T19:01:35.801Z,98652.13
2018-12-29T19:04:04.022Z,98657.57
2018-12-29T19:06:32.154Z,98640.64
2018-12-29T19:09:00.347Z,98626.66
2018-12-29T19:11:32.270Z,98615.30
2018-12-29T19:14:00.850Z,98611.03
2018-12-29T19:16:28.994Z,98602.41
2018-12-29T19:18:57.516Z,98587.63
2018-12-29T19:21:25.660Z,98581.81
2018-12-29T19:23:54.283Z,98584.98
2018-12-29T19:26:22.811Z,98579.91
2018-12-29T19:28:52.637Z,98595.12
2018-12-29T19:31:20.954Z,98599.23
2018-12-29T19:33:49.129Z,98615.06
2018-12-29T19:36:36.575Z,98617.18
2018-12-29T19:39:07.374Z,98619.33
2018-12-29T19:41:35.583Z,98619.09
2018-12-29T19:44:03.797Z,98638.63
2018-12-29T19:46:33.639Z,98668.70
2018-12-29T19:49:01.845Z,98660.44
2018-12-29T19:51:31.706Z,98674.95
2018-12-29T19:53:59.893Z,98670.61
2018-12-29T19:56:28.069Z,98684.36
2018-12-29T19:58:57.987Z,98679.45
2018-12-29T20:01:26.178Z,98691.38
2018-12-29T20:03:56.030Z,98688.73
2018-12-29T20:06:25.879Z,98677.95
2018-12-29T20:09:13.142Z,98671.20
2018-12-29T20:11:41.362Z,98671.74
2018-12-29T20:14:09.582Z,98662.91
2018-12-29T20:16:37.740Z,98671.42
2018-12-29T20:19:05.918Z,98666.83
2018-12-29T20:21:34.051Z,98659.34
2018-12-29T20:24:02.261Z,98658.84
2018-12-29T20:26:30.416Z,98669.83
2018-12-29T20:28:58.615Z,98658.52
2018-12-29T20:31:26.786Z,98657.78
2018-12-29T20:33:54.962Z,98630.64
2018-12-29T20:36:23.144Z,98628.20
2018-12-29T20:38:51.351Z,98538.02
2018-12-29T20:41:21.206Z,98621.53
2018-12-29T20:43:49.407Z,98623.97
2018-12-29T20:46:17.616Z,98611.35
2018-12-29T20:48:45.781Z,98609.69
2018-12-29T20:51:13.975Z,98608.84
2018-12-29T20:53:42.210Z,98595.08
2018-12-29T20:56:10.398Z,98580.75
2018-12-29T20:58:38.569Z,98476.03
2018-12-29T21:01:25.866Z,98544.50
2018-12-29T21:03:54.060Z,98530.58
2018-12-29T21:06:22.222Z,98526.72
2018-12-29T21:08:50.413Z,98516.59
2018-12-29T21:11:18.642Z,98502.51
2018-12-29T21:13:46.805Z,98481.88
2018-12-29T21:19:02.147Z,98486.72
2018-12-29T21:21:49.187Z,98481.97
2018-12-29T21:24:17.414Z,98465.73
2018-12-29T21:29:34.410Z,98468.74
2018-12-29T21:32:02.601Z,98461.25
2018-12-29T21:34:49.881Z,98453.20
2018-12-29T21:37:18.001Z,98447.34
2018-12-29T21:39:46.250Z,98449.17
2018-12-29T21:42:14.393Z,98445.63
2018-12-29T21:44:42.594Z,98440.34
2018-12-29T21:47:12.540Z,98432.97
2018-12-29T21:49:40.763Z,98419.11
2018-12-29T21:52:08.943Z,98412.11
2018-12-29T21:54:37.226Z,98412.88
2018-12-29T21:57:05.426Z,98409.91
2018-12-29T21:59:33.663Z,98406.73
2018-12-29T22:02:03.578Z,98409.67
2018-12-29T22:04:31.802Z,98417.91
2018-12-29T22:07:00.047Z,98417.67
2018-12-29T22:09:28.200Z,98414.26
2018-12-29T22:12:15.455Z,98424.39
2018-12-29T22:17:17.855Z,98435.04
2018-12-29T22:19:46.025Z,98438.91
2018-12-29T22:22:14.194Z,98443.48
2018-12-29T22:24:44.085Z,98438.58
2018-12-29T22:27:12.245Z,98435.98
2018-12-29T22:29:40.473Z,98437.77
2018-12-29T22:32:08.686Z,98436.18
2018-12-29T22:34:36.955Z,98445.02
2018-12-29T22:37:05.146Z,98431.67
2018-12-29T22:39:33.321Z,98435.37
2018-12-29T22:42:01.517Z,98427.27
2018-12-29T22:44:29.692Z,98421.12
2018-12-29T22:46:57.883Z,98421.42
2018-12-29T22:49:26.056Z,98409.86
2018-12-29T22:51:54.523Z,98415.69
2018-12-29T22:54:22.759Z,98404.17
2018-12-29T22:56:50.886Z,98400.17
2018-12-29T22:59:19.032Z,98397.19
2018-12-29T23:01:47.210Z,98393.22
2018-12-29T23:04:15.439Z,98383.87
2018-12-29T23:06:43.648Z,98390.77
2018-12-29T23:09:12.134Z,98381.66
2018-12-29T23:11:40.288Z,98373.31
2018-12-29T23:14:08.520Z,98360.98
2018-12-29T23:16:36.635Z,98360.70
2018-12-29T23:19:04.822Z,98345.16
2018-12-29T23:21:32.957Z,98350.02
2018-12-29T23:26:51.594Z,98341.38
2018-12-29T23:29:21.391Z,98350.48
2018-12-29T23:31:49.621Z,98340.55
2018-12-29T23:34:17.774Z,98343.54
2018-12-29T23:36:45.948Z,98338.98
2018-12-29T23:39:14.206Z,98333.89
2018-12-29T23:41:44.053Z,98341.19
2018-12-29T23:44:12.252Z,98339.36
2018-12-29T23:46:40.454Z,98344.44
2018-12-29T23:49:08.781Z,98343.05
2018-12-29T23:51:36.981Z,98329.05
2018-12-29T23:54:06.798Z,98336.83
2018-12-29T23:56:36.704Z,98335.76
2018-12-29T23:59:04.892Z,98343.23
